UAE649 VCBI-OMDB
Flight info
| Callsign | UAE649 |
|---|---|
| Flight time | 3h 57m |
| Altitude | 36000 |
| Route | BASUR2D BASUR P570 METIP/N0480F380 P570 ITURA M762 VAXAS/N0403F240 M762 MIVEK P574 IMPED |
| Aircraft | B77W/H-SDE1E2E3FGHIJ2J3J4J5M1RWXY/LB1D1 |
Departure
| Time | 2026-05-08 11:50 |
|---|---|
| Airport | Bandaranaike International Colombo Airport (VCBI) |
Arrival
| Time | 2026-05-08 15:47 |
|---|---|
| Airport | Dubai International Airport (OMDB) |
| Time | Latitude | Longitude | Altitude | Speed | Heading |
|---|---|---|---|---|---|
| 2026-05-08 10:56 | 7.17643 | 79.88358 | 50 ft | 0 kts | 37° |
| 2026-05-08 11:38 | 7.17633 | 79.88350 | 49 ft | 2 kts | 37° |
| 2026-05-08 11:38 | 7.17622 | 79.88341 | 48 ft | 2 kts | 37° |
| 2026-05-08 11:38 | 7.17613 | 79.88335 | 48 ft | 0 kts | 37° |
| 2026-05-08 11:38 | 7.17601 | 79.88328 | 48 ft | 2 kts | 13° |
| 2026-05-08 11:39 | 7.17587 | 79.88327 | 48 ft | 2 kts | 342° |
| 2026-05-08 11:39 | 7.17574 | 79.88335 | 49 ft | 2 kts | 314° |
| 2026-05-08 11:39 | 7.17570 | 79.88339 | 49 ft | 1 kts | 306° |
| 2026-05-08 11:39 | 7.17569 | 79.88341 | 49 ft | 0 kts | 306° |
| 2026-05-08 11:43 | 7.17570 | 79.88339 | 49 ft | 1 kts | 306° |
| 2026-05-08 11:43 | 7.17594 | 79.88307 | 47 ft | 9 kts | 307° |
| 2026-05-08 11:44 | 7.17637 | 79.88261 | 47 ft | 7 kts | 336° |
| 2026-05-08 11:44 | 7.17681 | 79.88271 | 47 ft | 7 kts | 34° |
| 2026-05-08 11:44 | 7.17726 | 79.88306 | 48 ft | 9 kts | 38° |
| 2026-05-08 11:44 | 7.17782 | 79.88349 | 49 ft | 10 kts | 38° |
| 2026-05-08 11:45 | 7.17846 | 79.88399 | 51 ft | 12 kts | 38° |
| 2026-05-08 11:45 | 7.17926 | 79.88460 | 51 ft | 16 kts | 38° |
| 2026-05-08 11:45 | 7.18033 | 79.88544 | 50 ft | 21 kts | 38° |
| 2026-05-08 11:45 | 7.18161 | 79.88644 | 50 ft | 24 kts | 38° |
| 2026-05-08 11:46 | 7.18304 | 79.88755 | 51 ft | 27 kts | 37° |
| 2026-05-08 11:46 | 7.18464 | 79.88879 | 50 ft | 28 kts | 38° |
| 2026-05-08 11:46 | 7.18617 | 79.88998 | 49 ft | 26 kts | 38° |
| 2026-05-08 11:46 | 7.18760 | 79.89108 | 48 ft | 24 kts | 38° |
| 2026-05-08 11:47 | 7.18890 | 79.89210 | 47 ft | 22 kts | 38° |
| 2026-05-08 11:47 | 7.19009 | 79.89302 | 48 ft | 20 kts | 38° |
| 2026-05-08 11:47 | 7.19113 | 79.89383 | 49 ft | 17 kts | 37° |
| 2026-05-08 11:47 | 7.19178 | 79.89426 | 49 ft | 9 kts | 18° |
| 2026-05-08 11:48 | 7.19228 | 79.89399 | 49 ft | 8 kts | 310° |
| 2026-05-08 11:48 | 7.19267 | 79.89350 | 48 ft | 8 kts | 308° |
| 2026-05-08 11:48 | 7.19290 | 79.89320 | 48 ft | 3 kts | 308° |
| 2026-05-08 11:48 | 7.19296 | 79.89307 | 48 ft | 1 kts | 267° |
| 2026-05-08 11:49 | 7.19292 | 79.89299 | 48 ft | 1 kts | 238° |
| 2026-05-08 11:49 | 7.19279 | 79.89284 | 48 ft | 5 kts | 222° |
| 2026-05-08 11:49 | 7.19155 | 79.89185 | 49 ft | 50 kts | 218° |
| 2026-05-08 11:49 | 7.18683 | 79.88819 | 50 ft | 118 kts | 218° |
| 2026-05-08 11:50 | 7.17872 | 79.88190 | 47 ft | 175 kts | 218° |
| 2026-05-08 11:50 | 7.16827 | 79.87380 | 396 ft | 194 kts | 217° |
| 2026-05-08 11:50 | 7.15761 | 79.86496 | 974 ft | 206 kts | 235° |
| 2026-05-08 11:50 | 7.15230 | 79.85183 | 1512 ft | 211 kts | 268° |
| 2026-05-08 11:51 | 7.15487 | 79.83666 | 1742 ft | 230 kts | 293° |
| 2026-05-08 11:51 | 7.16105 | 79.82137 | 2240 ft | 243 kts | 295° |
| 2026-05-08 11:51 | 7.16784 | 79.80579 | 2846 ft | 251 kts | 296° |
| 2026-05-08 11:51 | 7.17520 | 79.78893 | 3293 ft | 268 kts | 296° |
| 2026-05-08 11:52 | 7.18382 | 79.77234 | 3996 ft | 271 kts | 307° |
| 2026-05-08 11:52 | 7.19519 | 79.75718 | 4726 ft | 273 kts | 309° |
| 2026-05-08 11:52 | 7.20701 | 79.74199 | 4971 ft | 276 kts | 310° |
| 2026-05-08 11:52 | 7.21873 | 79.72688 | 4987 ft | 274 kts | 309° |
| 2026-05-08 11:53 | 7.23051 | 79.71159 | 4990 ft | 274 kts | 309° |
| 2026-05-08 11:53 | 7.24207 | 79.69623 | 4986 ft | 275 kts | 304° |
| 2026-05-08 11:53 | 7.25089 | 79.67940 | 4997 ft | 276 kts | 296° |
| 2026-05-08 11:53 | 7.25880 | 79.66169 | 4994 ft | 276 kts | 296° |
| 2026-05-08 11:54 | 7.26661 | 79.64406 | 4996 ft | 276 kts | 296° |
| 2026-05-08 11:54 | 7.27449 | 79.62634 | 4993 ft | 276 kts | 296° |
| 2026-05-08 11:54 | 7.28242 | 79.60860 | 5013 ft | 284 kts | 296° |
| 2026-05-08 11:54 | 7.29056 | 79.59042 | 5785 ft | 284 kts | 296° |
| 2026-05-08 11:55 | 7.29855 | 79.57256 | 6631 ft | 281 kts | 296° |
| 2026-05-08 11:55 | 7.30661 | 79.55457 | 7271 ft | 286 kts | 296° |
| 2026-05-08 11:55 | 7.31475 | 79.53640 | 7930 ft | 289 kts | 296° |
| 2026-05-08 11:55 | 7.32306 | 79.51783 | 8591 ft | 291 kts | 295° |
| 2026-05-08 11:56 | 7.33137 | 79.49927 | 9213 ft | 295 kts | 295° |
| 2026-05-08 11:56 | 7.33983 | 79.48035 | 9861 ft | 297 kts | 295° |
| 2026-05-08 11:56 | 7.34835 | 79.46130 | 10375 ft | 306 kts | 295° |
| 2026-05-08 11:56 | 7.35734 | 79.44122 | 10683 ft | 323 kts | 295° |
| 2026-05-08 11:57 | 7.36683 | 79.42002 | 11024 ft | 339 kts | 295° |
| 2026-05-08 11:57 | 7.37664 | 79.39808 | 11389 ft | 355 kts | 295° |
| 2026-05-08 11:57 | 7.38697 | 79.37498 | 11767 ft | 370 kts | 295° |
| 2026-05-08 11:57 | 7.39776 | 79.35086 | 12191 ft | 384 kts | 295° |
| 2026-05-08 11:58 | 7.40891 | 79.32591 | 12771 ft | 393 kts | 295° |
| 2026-05-08 11:58 | 7.42011 | 79.30086 | 13484 ft | 398 kts | 295° |
| 2026-05-08 11:58 | 7.43157 | 79.27520 | 14253 ft | 403 kts | 295° |
| 2026-05-08 11:59 | 7.45473 | 79.22335 | 15833 ft | 412 kts | 294° |
| 2026-05-08 11:59 | 7.46646 | 79.19708 | 16608 ft | 416 kts | 294° |
| 2026-05-08 11:59 | 7.47833 | 79.17049 | 17353 ft | 421 kts | 294° |
| 2026-05-08 11:59 | 7.49050 | 79.14321 | 18099 ft | 425 kts | 294° |
| 2026-05-08 12:00 | 7.50265 | 79.11598 | 18767 ft | 431 kts | 294° |
| 2026-05-08 12:00 | 7.51484 | 79.08865 | 19423 ft | 436 kts | 294° |
| 2026-05-08 12:00 | 7.52740 | 79.06052 | 20087 ft | 441 kts | 294° |
| 2026-05-08 12:00 | 7.54003 | 79.03218 | 20762 ft | 445 kts | 294° |
| 2026-05-08 12:01 | 7.55258 | 79.00403 | 21368 ft | 450 kts | 294° |
| 2026-05-08 12:01 | 7.56547 | 78.97513 | 21972 ft | 455 kts | 294° |
| 2026-05-08 12:01 | 7.57859 | 78.94569 | 22575 ft | 460 kts | 294° |
| 2026-05-08 12:01 | 7.59163 | 78.91644 | 23150 ft | 465 kts | 294° |
| 2026-05-08 12:02 | 7.60501 | 78.88641 | 23731 ft | 469 kts | 294° |
| 2026-05-08 12:02 | 7.61827 | 78.85663 | 24289 ft | 474 kts | 294° |
| 2026-05-08 12:02 | 7.63191 | 78.82600 | 24864 ft | 478 kts | 294° |
| 2026-05-08 12:02 | 7.64556 | 78.79535 | 25428 ft | 483 kts | 294° |
| 2026-05-08 12:03 | 7.65933 | 78.76442 | 25958 ft | 488 kts | 294° |
| 2026-05-08 12:03 | 7.67328 | 78.73306 | 26492 ft | 492 kts | 294° |
| 2026-05-08 12:03 | 7.68713 | 78.70195 | 27021 ft | 497 kts | 294° |
| 2026-05-08 12:03 | 7.70135 | 78.66998 | 27537 ft | 502 kts | 294° |
| 2026-05-08 12:04 | 7.71569 | 78.63773 | 28053 ft | 506 kts | 294° |
| 2026-05-08 12:04 | 7.73017 | 78.60517 | 28556 ft | 511 kts | 294° |
| 2026-05-08 12:04 | 7.74466 | 78.57259 | 29093 ft | 514 kts | 294° |
| 2026-05-08 12:04 | 7.75920 | 78.53986 | 29795 ft | 514 kts | 294° |
| 2026-05-08 12:05 | 7.77373 | 78.50715 | 30641 ft | 510 kts | 294° |
| 2026-05-08 12:05 | 7.78819 | 78.47459 | 31458 ft | 507 kts | 294° |
| 2026-05-08 12:05 | 7.80251 | 78.44235 | 32184 ft | 504 kts | 294° |
| 2026-05-08 12:05 | 7.81675 | 78.41028 | 32873 ft | 503 kts | 294° |
| 2026-05-08 12:06 | 7.83099 | 78.37819 | 33547 ft | 503 kts | 294° |
| 2026-05-08 12:06 | 7.84522 | 78.34612 | 34233 ft | 501 kts | 294° |
| 2026-05-08 12:06 | 7.85938 | 78.31420 | 34889 ft | 500 kts | 294° |
| 2026-05-08 12:06 | 7.87351 | 78.28234 | 35454 ft | 500 kts | 294° |
| 2026-05-08 12:07 | 7.88786 | 78.24998 | 35770 ft | 503 kts | 294° |
| 2026-05-08 12:07 | 7.90217 | 78.21770 | 35765 ft | 503 kts | 294° |
| 2026-05-08 12:07 | 7.93060 | 78.15356 | 35768 ft | 500 kts | 294° |
| 2026-05-08 12:08 | 7.95902 | 78.08960 | 35764 ft | 501 kts | 294° |
| 2026-05-08 12:08 | 7.98757 | 78.02539 | 35766 ft | 501 kts | 294° |
| 2026-05-08 12:09 | 8.01586 | 77.96173 | 35766 ft | 500 kts | 294° |
| 2026-05-08 12:09 | 8.04449 | 77.89726 | 35765 ft | 501 kts | 294° |
| 2026-05-08 12:10 | 8.07275 | 77.83360 | 35768 ft | 500 kts | 294° |
| 2026-05-08 12:10 | 8.10113 | 77.76962 | 35766 ft | 500 kts | 294° |
| 2026-05-08 12:11 | 8.12955 | 77.70554 | 35766 ft | 500 kts | 294° |
| 2026-05-08 12:11 | 8.15777 | 77.64185 | 35763 ft | 500 kts | 294° |
| 2026-05-08 12:12 | 8.18619 | 77.57770 | 35765 ft | 498 kts | 294° |
| 2026-05-08 12:12 | 8.21451 | 77.51372 | 35767 ft | 500 kts | 294° |
| 2026-05-08 12:13 | 8.24267 | 77.45011 | 35771 ft | 498 kts | 294° |
| 2026-05-08 12:13 | 8.26516 | 77.38402 | 35772 ft | 498 kts | 280° |
| 2026-05-08 12:14 | 8.26899 | 77.31463 | 35779 ft | 499 kts | 268° |
| 2026-05-08 12:14 | 8.26762 | 77.24483 | 35780 ft | 498 kts | 268° |
| 2026-05-08 12:15 | 8.26614 | 77.17493 | 35773 ft | 499 kts | 268° |
| 2026-05-08 12:15 | 8.26466 | 77.10485 | 35771 ft | 498 kts | 268° |
| 2026-05-08 12:16 | 8.26314 | 77.03485 | 35767 ft | 498 kts | 268° |
| 2026-05-08 12:16 | 8.26385 | 76.96522 | 35763 ft | 499 kts | 277° |
| 2026-05-08 12:17 | 8.28060 | 76.89776 | 35768 ft | 499 kts | 288° |
| 2026-05-08 12:17 | 8.30186 | 76.83124 | 35765 ft | 499 kts | 288° |
| 2026-05-08 12:18 | 8.32331 | 76.76433 | 35767 ft | 499 kts | 288° |
| 2026-05-08 12:18 | 8.34462 | 76.69782 | 35766 ft | 499 kts | 288° |
| 2026-05-08 12:19 | 8.36592 | 76.63113 | 35767 ft | 499 kts | 288° |
| 2026-05-08 12:19 | 8.38721 | 76.56464 | 35769 ft | 500 kts | 288° |
| 2026-05-08 12:20 | 8.40860 | 76.49770 | 35768 ft | 498 kts | 288° |
| 2026-05-08 12:20 | 8.43167 | 76.43182 | 35767 ft | 499 kts | 296° |
| 2026-05-08 12:21 | 8.46312 | 76.36940 | 35769 ft | 499 kts | 298° |
| 2026-05-08 12:21 | 8.49503 | 76.30733 | 35763 ft | 498 kts | 298° |
| 2026-05-08 12:22 | 8.52704 | 76.24513 | 35763 ft | 498 kts | 298° |
| 2026-05-08 12:22 | 8.55897 | 76.18309 | 35763 ft | 499 kts | 298° |
| 2026-05-08 12:23 | 8.59625 | 76.12460 | 35764 ft | 495 kts | 313° |
| 2026-05-08 12:23 | 8.64358 | 76.07361 | 35766 ft | 496 kts | 315° |
| 2026-05-08 12:24 | 8.69116 | 76.02307 | 35765 ft | 495 kts | 315° |
| 2026-05-08 12:24 | 8.73831 | 75.97297 | 35766 ft | 495 kts | 315° |
| 2026-05-08 12:25 | 8.78600 | 75.92227 | 35766 ft | 495 kts | 315° |
| 2026-05-08 12:25 | 8.83346 | 75.87180 | 35765 ft | 494 kts | 315° |
| 2026-05-08 12:26 | 8.88066 | 75.82158 | 35769 ft | 496 kts | 315° |
| 2026-05-08 12:26 | 8.92814 | 75.77104 | 35766 ft | 496 kts | 315° |
| 2026-05-08 12:27 | 8.97576 | 75.72034 | 35769 ft | 496 kts | 315° |
| 2026-05-08 12:27 | 9.02304 | 75.66997 | 35772 ft | 495 kts | 315° |
| 2026-05-08 12:28 | 9.07049 | 75.61940 | 35768 ft | 496 kts | 315° |
| 2026-05-08 12:28 | 9.11797 | 75.56878 | 35767 ft | 496 kts | 315° |
| 2026-05-08 12:29 | 9.16558 | 75.51799 | 35767 ft | 494 kts | 315° |
| 2026-05-08 12:29 | 9.21267 | 75.46774 | 35768 ft | 496 kts | 315° |
| 2026-05-08 12:30 | 9.26017 | 75.41703 | 35767 ft | 495 kts | 315° |
| 2026-05-08 12:30 | 9.30754 | 75.36643 | 35768 ft | 495 kts | 315° |
| 2026-05-08 12:31 | 9.35500 | 75.31572 | 35762 ft | 494 kts | 315° |
| 2026-05-08 12:31 | 9.40208 | 75.26538 | 35764 ft | 494 kts | 315° |
| 2026-05-08 12:32 | 9.44927 | 75.21491 | 35763 ft | 494 kts | 315° |
| 2026-05-08 12:32 | 9.49669 | 75.16418 | 35763 ft | 494 kts | 314° |
| 2026-05-08 12:33 | 9.54379 | 75.11375 | 35765 ft | 494 kts | 315° |
| 2026-05-08 12:33 | 9.59114 | 75.06304 | 35763 ft | 493 kts | 315° |
| 2026-05-08 12:34 | 9.63804 | 75.01279 | 35764 ft | 493 kts | 315° |
| 2026-05-08 12:34 | 9.68512 | 74.96231 | 35765 ft | 492 kts | 315° |
| 2026-05-08 12:35 | 9.73244 | 74.91156 | 35766 ft | 494 kts | 315° |
| 2026-05-08 12:35 | 9.77936 | 74.86121 | 35765 ft | 492 kts | 314° |
| 2026-05-08 12:36 | 9.82620 | 74.81092 | 35767 ft | 493 kts | 315° |
| 2026-05-08 12:36 | 9.87334 | 74.76029 | 35767 ft | 493 kts | 315° |
| 2026-05-08 12:37 | 9.92029 | 74.70983 | 35770 ft | 492 kts | 315° |
| 2026-05-08 12:37 | 9.96747 | 74.65910 | 35769 ft | 492 kts | 315° |
| 2026-05-08 12:38 | 10.01450 | 74.60852 | 35769 ft | 493 kts | 314° |
| 2026-05-08 12:38 | 10.06151 | 74.55791 | 35768 ft | 492 kts | 314° |
| 2026-05-08 12:39 | 10.10832 | 74.50751 | 35765 ft | 491 kts | 314° |
| 2026-05-08 12:39 | 10.15536 | 74.45681 | 35765 ft | 492 kts | 314° |
| 2026-05-08 12:40 | 10.20236 | 74.40614 | 35771 ft | 492 kts | 314° |
| 2026-05-08 12:40 | 10.24914 | 74.35568 | 35768 ft | 492 kts | 314° |
| 2026-05-08 12:41 | 10.29589 | 74.30521 | 35763 ft | 493 kts | 314° |
| 2026-05-08 12:41 | 10.34282 | 74.25450 | 35761 ft | 492 kts | 314° |
| 2026-05-08 12:42 | 10.38982 | 74.20367 | 35763 ft | 492 kts | 313° |
| 2026-05-08 12:42 | 10.43149 | 74.14882 | 35764 ft | 494 kts | 306° |
| 2026-05-08 12:43 | 10.47137 | 74.09231 | 35763 ft | 492 kts | 306° |
| 2026-05-08 12:43 | 10.51137 | 74.03561 | 35763 ft | 493 kts | 306° |
| 2026-05-08 12:44 | 10.55117 | 73.97919 | 35768 ft | 493 kts | 306° |
| 2026-05-08 12:44 | 10.59117 | 73.92248 | 35766 ft | 493 kts | 306° |
| 2026-05-08 12:45 | 10.63116 | 73.86574 | 35767 ft | 492 kts | 306° |
| 2026-05-08 12:45 | 10.67090 | 73.80932 | 35770 ft | 493 kts | 306° |
| 2026-05-08 12:46 | 10.71068 | 73.75282 | 35764 ft | 491 kts | 306° |
| 2026-05-08 12:46 | 10.75036 | 73.69645 | 35768 ft | 492 kts | 306° |
| 2026-05-08 12:47 | 10.79018 | 73.63983 | 35768 ft | 490 kts | 306° |
| 2026-05-08 12:47 | 10.82982 | 73.58345 | 35768 ft | 491 kts | 306° |
| 2026-05-08 12:48 | 10.86935 | 73.52721 | 35768 ft | 490 kts | 306° |
| 2026-05-08 12:48 | 10.90892 | 73.47086 | 35768 ft | 491 kts | 306° |
| 2026-05-08 12:49 | 10.94870 | 73.41419 | 35768 ft | 489 kts | 306° |
| 2026-05-08 12:49 | 10.98835 | 73.35767 | 35766 ft | 491 kts | 306° |
| 2026-05-08 12:50 | 11.02780 | 73.30141 | 35764 ft | 489 kts | 306° |
| 2026-05-08 12:50 | 11.06722 | 73.24517 | 35765 ft | 489 kts | 306° |
| 2026-05-08 12:51 | 11.12632 | 73.16078 | 35763 ft | 490 kts | 306° |
| 2026-05-08 12:52 | 11.16583 | 73.10432 | 35764 ft | 489 kts | 306° |
| 2026-05-08 12:52 | 11.22522 | 73.01942 | 35769 ft | 489 kts | 306° |
| 2026-05-08 12:53 | 11.26472 | 72.96291 | 35764 ft | 490 kts | 306° |
| 2026-05-08 12:53 | 11.30397 | 72.90671 | 35766 ft | 488 kts | 306° |
| 2026-05-08 12:54 | 11.34337 | 72.85028 | 35766 ft | 489 kts | 306° |
| 2026-05-08 12:54 | 11.38276 | 72.79384 | 35770 ft | 489 kts | 306° |
| 2026-05-08 12:55 | 11.42227 | 72.73718 | 35775 ft | 489 kts | 306° |
| 2026-05-08 12:55 | 11.46138 | 72.68108 | 35770 ft | 488 kts | 306° |
| 2026-05-08 12:56 | 11.50067 | 72.62468 | 35776 ft | 488 kts | 306° |
| 2026-05-08 12:56 | 11.53989 | 72.56835 | 35780 ft | 488 kts | 306° |
| 2026-05-08 12:57 | 11.57932 | 72.51169 | 35781 ft | 488 kts | 306° |
| 2026-05-08 12:57 | 11.61843 | 72.45545 | 35782 ft | 487 kts | 306° |
| 2026-05-08 12:58 | 11.65780 | 72.39883 | 35785 ft | 488 kts | 306° |
| 2026-05-08 12:58 | 11.69701 | 72.34238 | 35789 ft | 488 kts | 306° |
| 2026-05-08 12:59 | 11.73595 | 72.28629 | 35785 ft | 487 kts | 306° |
| 2026-05-08 12:59 | 11.77503 | 72.22997 | 35790 ft | 487 kts | 306° |
| 2026-05-08 13:00 | 11.81426 | 72.17342 | 35790 ft | 488 kts | 306° |
| 2026-05-08 13:00 | 11.85340 | 72.11694 | 35794 ft | 487 kts | 306° |
| 2026-05-08 13:01 | 11.89249 | 72.06051 | 35803 ft | 488 kts | 306° |
| 2026-05-08 13:01 | 11.93155 | 72.00410 | 35796 ft | 486 kts | 306° |
| 2026-05-08 13:02 | 11.97141 | 71.94849 | 35805 ft | 488 kts | 307° |
| 2026-05-08 13:02 | 12.01205 | 71.89266 | 35805 ft | 487 kts | 307° |
| 2026-05-08 13:03 | 12.05247 | 71.83701 | 35803 ft | 487 kts | 307° |
| 2026-05-08 13:03 | 12.09277 | 71.78143 | 35801 ft | 487 kts | 307° |
| 2026-05-08 13:04 | 12.13323 | 71.72559 | 35800 ft | 487 kts | 307° |
| 2026-05-08 13:04 | 12.17344 | 71.67004 | 35806 ft | 487 kts | 307° |
| 2026-05-08 13:05 | 12.21371 | 71.61435 | 35801 ft | 487 kts | 307° |
| 2026-05-08 13:05 | 12.25385 | 71.55882 | 35797 ft | 487 kts | 307° |
| 2026-05-08 13:06 | 12.29399 | 71.50324 | 35800 ft | 487 kts | 307° |
| 2026-05-08 13:06 | 12.33436 | 71.44732 | 35804 ft | 488 kts | 307° |
| 2026-05-08 13:07 | 12.37453 | 71.39164 | 35800 ft | 487 kts | 307° |
| 2026-05-08 13:07 | 12.41467 | 71.33597 | 35800 ft | 488 kts | 307° |
| 2026-05-08 13:08 | 12.45498 | 71.28002 | 35799 ft | 488 kts | 307° |
| 2026-05-08 13:08 | 12.49515 | 71.22427 | 35800 ft | 487 kts | 307° |
| 2026-05-08 13:09 | 12.53528 | 71.16860 | 35804 ft | 488 kts | 307° |
| 2026-05-08 13:09 | 12.57558 | 71.11269 | 35802 ft | 487 kts | 307° |
| 2026-05-08 13:10 | 12.61570 | 71.05698 | 35804 ft | 487 kts | 307° |
| 2026-05-08 13:10 | 12.65595 | 71.00105 | 35805 ft | 487 kts | 307° |
| 2026-05-08 13:11 | 12.69607 | 70.94528 | 35806 ft | 486 kts | 307° |
| 2026-05-08 13:11 | 12.73632 | 70.88929 | 35808 ft | 487 kts | 307° |
| 2026-05-08 13:12 | 12.77627 | 70.83369 | 35806 ft | 487 kts | 307° |
| 2026-05-08 13:12 | 12.81625 | 70.77800 | 35807 ft | 487 kts | 307° |
| 2026-05-08 13:13 | 12.85652 | 70.72187 | 35807 ft | 487 kts | 307° |
| 2026-05-08 13:13 | 12.89663 | 70.66593 | 35807 ft | 487 kts | 307° |
| 2026-05-08 13:14 | 12.93671 | 70.61002 | 35807 ft | 487 kts | 307° |
| 2026-05-08 13:14 | 12.97672 | 70.55415 | 35806 ft | 486 kts | 307° |
| 2026-05-08 13:15 | 13.01688 | 70.49803 | 35812 ft | 487 kts | 307° |
| 2026-05-08 13:15 | 13.05672 | 70.44234 | 35806 ft | 487 kts | 306° |
| 2026-05-08 13:16 | 13.09662 | 70.38618 | 35810 ft | 487 kts | 306° |
| 2026-05-08 13:16 | 13.13656 | 70.32989 | 35809 ft | 487 kts | 306° |
| 2026-05-08 13:17 | 13.17647 | 70.27362 | 35805 ft | 487 kts | 306° |
| 2026-05-08 13:17 | 13.21629 | 70.21744 | 35807 ft | 488 kts | 306° |
| 2026-05-08 13:18 | 13.25604 | 70.16134 | 35810 ft | 487 kts | 306° |
| 2026-05-08 13:18 | 13.29594 | 70.10498 | 35810 ft | 486 kts | 306° |
| 2026-05-08 13:19 | 13.33539 | 70.04924 | 35812 ft | 485 kts | 306° |
| 2026-05-08 13:19 | 13.37516 | 69.99300 | 35812 ft | 486 kts | 306° |
| 2026-05-08 13:20 | 13.41484 | 69.93684 | 35816 ft | 485 kts | 306° |
| 2026-05-08 13:20 | 13.45436 | 69.88089 | 35815 ft | 485 kts | 306° |
| 2026-05-08 13:21 | 13.49409 | 69.82460 | 35820 ft | 486 kts | 306° |
| 2026-05-08 13:21 | 13.53352 | 69.76870 | 35815 ft | 485 kts | 306° |
| 2026-05-08 13:22 | 13.57317 | 69.71245 | 35823 ft | 485 kts | 306° |
| 2026-05-08 13:22 | 13.61268 | 69.65637 | 35821 ft | 485 kts | 306° |
| 2026-05-08 13:23 | 13.65229 | 69.60010 | 35822 ft | 484 kts | 306° |
| 2026-05-08 13:23 | 13.69169 | 69.54410 | 35825 ft | 484 kts | 306° |
| 2026-05-08 13:24 | 13.73114 | 69.48798 | 35824 ft | 479 kts | 306° |
| 2026-05-08 13:24 | 13.76990 | 69.43282 | 35828 ft | 482 kts | 306° |
| 2026-05-08 13:25 | 13.80930 | 69.37671 | 35826 ft | 485 kts | 306° |
| 2026-05-08 13:25 | 13.84864 | 69.32065 | 35827 ft | 483 kts | 306° |
| 2026-05-08 13:26 | 13.88796 | 69.26457 | 35823 ft | 483 kts | 306° |
| 2026-05-08 13:26 | 13.92723 | 69.20853 | 35826 ft | 484 kts | 306° |
| 2026-05-08 13:27 | 13.96665 | 69.15224 | 35825 ft | 482 kts | 306° |
| 2026-05-08 13:27 | 14.00572 | 69.09641 | 35827 ft | 483 kts | 306° |
| 2026-05-08 13:28 | 14.04481 | 69.04051 | 35828 ft | 482 kts | 306° |
| 2026-05-08 13:28 | 14.08405 | 68.98437 | 35828 ft | 481 kts | 306° |
| 2026-05-08 13:29 | 14.12351 | 68.92842 | 35828 ft | 481 kts | 306° |
| 2026-05-08 13:29 | 14.16282 | 68.87281 | 35826 ft | 481 kts | 306° |
| 2026-05-08 13:30 | 14.20199 | 68.81735 | 35828 ft | 480 kts | 306° |
| 2026-05-08 13:30 | 14.24122 | 68.76173 | 35826 ft | 479 kts | 307° |
| 2026-05-08 13:31 | 14.28034 | 68.70624 | 35829 ft | 480 kts | 307° |
| 2026-05-08 13:31 | 14.31962 | 68.65049 | 35830 ft | 478 kts | 307° |
| 2026-05-08 13:32 | 14.35866 | 68.59502 | 35830 ft | 477 kts | 307° |
| 2026-05-08 13:32 | 14.39769 | 68.53954 | 35830 ft | 477 kts | 307° |
| 2026-05-08 13:33 | 14.43652 | 68.48430 | 35830 ft | 476 kts | 307° |
| 2026-05-08 13:33 | 14.47522 | 68.42921 | 35835 ft | 476 kts | 307° |
| 2026-05-08 13:34 | 14.51397 | 68.37402 | 35837 ft | 472 kts | 306° |
| 2026-05-08 13:34 | 14.55271 | 68.31879 | 35831 ft | 476 kts | 306° |
| 2026-05-08 13:35 | 14.59121 | 68.26387 | 35834 ft | 473 kts | 306° |
| 2026-05-08 13:35 | 14.62981 | 68.20878 | 35836 ft | 472 kts | 306° |
| 2026-05-08 13:36 | 14.66825 | 68.15387 | 35838 ft | 472 kts | 306° |
| 2026-05-08 13:36 | 14.70667 | 68.09895 | 35842 ft | 472 kts | 306° |
| 2026-05-08 13:37 | 14.74504 | 68.04407 | 35842 ft | 472 kts | 306° |
| 2026-05-08 13:37 | 14.78348 | 67.98904 | 35845 ft | 472 kts | 306° |
| 2026-05-08 13:38 | 14.82194 | 67.93396 | 35842 ft | 472 kts | 306° |
| 2026-05-08 13:38 | 14.86031 | 67.87897 | 35847 ft | 472 kts | 306° |
| 2026-05-08 13:39 | 14.89863 | 67.82400 | 35844 ft | 472 kts | 306° |
| 2026-05-08 13:39 | 14.93687 | 67.76912 | 35852 ft | 472 kts | 306° |
| 2026-05-08 13:40 | 14.97529 | 67.71393 | 35851 ft | 472 kts | 306° |
| 2026-05-08 13:40 | 15.01338 | 67.65918 | 35848 ft | 472 kts | 306° |
| 2026-05-08 13:41 | 15.05173 | 67.60402 | 35857 ft | 473 kts | 306° |
| 2026-05-08 13:41 | 15.09005 | 67.54887 | 35857 ft | 473 kts | 306° |
| 2026-05-08 13:42 | 15.12853 | 67.49345 | 35858 ft | 473 kts | 306° |
| 2026-05-08 13:42 | 15.16682 | 67.43824 | 35860 ft | 473 kts | 306° |
| 2026-05-08 13:43 | 15.20504 | 67.38311 | 35859 ft | 473 kts | 306° |
| 2026-05-08 13:43 | 15.24329 | 67.32790 | 35860 ft | 473 kts | 306° |
| 2026-05-08 13:44 | 15.28164 | 67.27250 | 35861 ft | 474 kts | 306° |
| 2026-05-08 13:44 | 15.32001 | 67.21703 | 35859 ft | 473 kts | 306° |
| 2026-05-08 13:45 | 15.35842 | 67.16147 | 35859 ft | 474 kts | 306° |
| 2026-05-08 13:45 | 15.39668 | 67.10609 | 35861 ft | 474 kts | 306° |
| 2026-05-08 13:46 | 15.43491 | 67.05070 | 35860 ft | 474 kts | 306° |
| 2026-05-08 13:46 | 15.47310 | 66.99534 | 35860 ft | 474 kts | 306° |
| 2026-05-08 13:47 | 15.51142 | 66.93974 | 35858 ft | 474 kts | 306° |
| 2026-05-08 13:47 | 15.54989 | 66.88389 | 35857 ft | 474 kts | 306° |
| 2026-05-08 13:48 | 15.58826 | 66.82814 | 35858 ft | 475 kts | 306° |
| 2026-05-08 13:48 | 15.60773 | 66.80027 | 36006 ft | 482 kts | 306° |
| 2026-05-08 13:48 | 15.62746 | 66.77214 | 36638 ft | 479 kts | 306° |
| 2026-05-08 13:49 | 15.64681 | 66.74455 | 37433 ft | 473 kts | 306° |
| 2026-05-08 13:49 | 15.66622 | 66.71687 | 37854 ft | 474 kts | 306° |
| 2026-05-08 13:49 | 15.70509 | 66.66133 | 37855 ft | 474 kts | 306° |
| 2026-05-08 13:50 | 15.74369 | 66.60615 | 37856 ft | 473 kts | 306° |
| 2026-05-08 13:50 | 15.78230 | 66.55090 | 37858 ft | 473 kts | 306° |
| 2026-05-08 13:51 | 15.82099 | 66.49548 | 37860 ft | 473 kts | 306° |
| 2026-05-08 13:51 | 15.85935 | 66.44048 | 37860 ft | 473 kts | 306° |
| 2026-05-08 13:52 | 15.89791 | 66.38517 | 37861 ft | 473 kts | 306° |
| 2026-05-08 13:52 | 15.93659 | 66.32964 | 37860 ft | 473 kts | 306° |
| 2026-05-08 13:53 | 15.97521 | 66.27415 | 37862 ft | 473 kts | 306° |
| 2026-05-08 13:53 | 16.01352 | 66.21908 | 37864 ft | 473 kts | 306° |
| 2026-05-08 13:54 | 16.05203 | 66.16367 | 37864 ft | 473 kts | 306° |
| 2026-05-08 13:54 | 16.09049 | 66.10828 | 37865 ft | 473 kts | 306° |
| 2026-05-08 13:55 | 16.12907 | 66.05267 | 37866 ft | 473 kts | 306° |
| 2026-05-08 13:56 | 16.18667 | 65.96960 | 37867 ft | 473 kts | 306° |
| 2026-05-08 13:56 | 16.22521 | 65.91395 | 37868 ft | 473 kts | 306° |
| 2026-05-08 13:57 | 16.26345 | 65.85869 | 37868 ft | 473 kts | 306° |
| 2026-05-08 13:57 | 16.30185 | 65.80318 | 37868 ft | 473 kts | 306° |
| 2026-05-08 13:58 | 16.34018 | 65.74770 | 37868 ft | 472 kts | 306° |
| 2026-05-08 13:58 | 16.37868 | 65.69194 | 37868 ft | 472 kts | 306° |
| 2026-05-08 13:59 | 16.41684 | 65.63663 | 37869 ft | 472 kts | 306° |
| 2026-05-08 13:59 | 16.45499 | 65.58130 | 37868 ft | 471 kts | 306° |
| 2026-05-08 14:00 | 16.49308 | 65.52600 | 37868 ft | 471 kts | 306° |
| 2026-05-08 14:00 | 16.53139 | 65.47034 | 37868 ft | 470 kts | 306° |
| 2026-05-08 14:01 | 16.56959 | 65.41481 | 37868 ft | 470 kts | 306° |
| 2026-05-08 14:01 | 16.60766 | 65.35941 | 37868 ft | 471 kts | 306° |
| 2026-05-08 14:02 | 16.64573 | 65.30398 | 37867 ft | 469 kts | 306° |
| 2026-05-08 14:02 | 16.68354 | 65.24888 | 37867 ft | 470 kts | 306° |
| 2026-05-08 14:03 | 16.72150 | 65.19353 | 37868 ft | 469 kts | 306° |
| 2026-05-08 14:03 | 16.75936 | 65.13826 | 37867 ft | 468 kts | 306° |
| 2026-05-08 14:04 | 16.79719 | 65.08300 | 37868 ft | 468 kts | 306° |
| 2026-05-08 14:04 | 16.83477 | 65.02806 | 37867 ft | 467 kts | 306° |
| 2026-05-08 14:05 | 16.87251 | 64.97285 | 37867 ft | 467 kts | 306° |
| 2026-05-08 14:05 | 16.91012 | 64.91778 | 37867 ft | 467 kts | 306° |
| 2026-05-08 14:06 | 16.94800 | 64.86227 | 37866 ft | 467 kts | 306° |
| 2026-05-08 14:06 | 16.98555 | 64.80720 | 37867 ft | 466 kts | 306° |
| 2026-05-08 14:07 | 17.02307 | 64.75214 | 37866 ft | 466 kts | 306° |
| 2026-05-08 14:07 | 17.06062 | 64.69698 | 37866 ft | 467 kts | 306° |
| 2026-05-08 14:08 | 17.09823 | 64.64169 | 37867 ft | 467 kts | 306° |
| 2026-05-08 14:08 | 17.13561 | 64.58669 | 37868 ft | 466 kts | 306° |
| 2026-05-08 14:09 | 17.17332 | 64.53117 | 37868 ft | 466 kts | 306° |
| 2026-05-08 14:09 | 17.21080 | 64.47594 | 37869 ft | 467 kts | 306° |
| 2026-05-08 14:10 | 17.24840 | 64.42049 | 37869 ft | 467 kts | 306° |
| 2026-05-08 14:10 | 17.28596 | 64.36505 | 37868 ft | 467 kts | 306° |
| 2026-05-08 14:11 | 17.32421 | 64.31059 | 37869 ft | 466 kts | 307° |
| 2026-05-08 14:11 | 17.36269 | 64.25622 | 37868 ft | 466 kts | 307° |
| 2026-05-08 14:12 | 17.40138 | 64.20141 | 37868 ft | 467 kts | 307° |
| 2026-05-08 14:12 | 17.43980 | 64.14690 | 37867 ft | 466 kts | 307° |
| 2026-05-08 14:13 | 17.47816 | 64.09240 | 37868 ft | 466 kts | 307° |
| 2026-05-08 14:13 | 17.51682 | 64.03744 | 37868 ft | 466 kts | 307° |
| 2026-05-08 14:14 | 17.55501 | 63.98307 | 37867 ft | 466 kts | 307° |
| 2026-05-08 14:14 | 17.59349 | 63.92825 | 37866 ft | 466 kts | 307° |
| 2026-05-08 14:15 | 17.63192 | 63.87346 | 37869 ft | 466 kts | 306° |
| 2026-05-08 14:15 | 17.67016 | 63.81889 | 37866 ft | 466 kts | 306° |
| 2026-05-08 14:16 | 17.70856 | 63.76405 | 37862 ft | 466 kts | 306° |
| 2026-05-08 14:16 | 17.74689 | 63.70927 | 37866 ft | 466 kts | 306° |
| 2026-05-08 14:17 | 17.78535 | 63.65425 | 37862 ft | 466 kts | 306° |
| 2026-05-08 14:17 | 17.82375 | 63.59927 | 37867 ft | 466 kts | 306° |
| 2026-05-08 14:18 | 17.86187 | 63.54465 | 37864 ft | 466 kts | 306° |
| 2026-05-08 14:18 | 17.90010 | 63.48983 | 37867 ft | 466 kts | 306° |
| 2026-05-08 14:19 | 17.93854 | 63.43465 | 37867 ft | 467 kts | 306° |
| 2026-05-08 14:19 | 17.97669 | 63.37985 | 37864 ft | 466 kts | 306° |
| 2026-05-08 14:20 | 18.01485 | 63.32499 | 37865 ft | 466 kts | 306° |
| 2026-05-08 14:20 | 18.05323 | 63.26976 | 37860 ft | 466 kts | 306° |
| 2026-05-08 14:21 | 18.09124 | 63.21503 | 37862 ft | 466 kts | 306° |
| 2026-05-08 14:21 | 18.12952 | 63.15986 | 37871 ft | 468 kts | 306° |
| 2026-05-08 14:22 | 18.16779 | 63.10465 | 37870 ft | 467 kts | 306° |
| 2026-05-08 14:22 | 18.20598 | 63.04951 | 37869 ft | 467 kts | 306° |
| 2026-05-08 14:23 | 18.24416 | 62.99434 | 37864 ft | 467 kts | 306° |
| 2026-05-08 14:23 | 18.28251 | 62.93888 | 37856 ft | 467 kts | 306° |
| 2026-05-08 14:24 | 18.32077 | 62.88350 | 37859 ft | 468 kts | 306° |
| 2026-05-08 14:24 | 18.35905 | 62.82804 | 37864 ft | 468 kts | 306° |
| 2026-05-08 14:25 | 18.39706 | 62.77293 | 37855 ft | 468 kts | 306° |
| 2026-05-08 14:25 | 18.43539 | 62.71730 | 37863 ft | 469 kts | 306° |
| 2026-05-08 14:26 | 18.47357 | 62.66185 | 37859 ft | 468 kts | 306° |
| 2026-05-08 14:26 | 18.51160 | 62.60656 | 37856 ft | 468 kts | 306° |
| 2026-05-08 14:27 | 18.54985 | 62.55091 | 37856 ft | 469 kts | 306° |
| 2026-05-08 14:27 | 18.58817 | 62.49510 | 37857 ft | 468 kts | 305° |
| 2026-05-08 14:28 | 18.62600 | 62.43931 | 37854 ft | 469 kts | 305° |
| 2026-05-08 14:28 | 18.66395 | 62.38320 | 37858 ft | 469 kts | 305° |
| 2026-05-08 14:29 | 18.70173 | 62.32732 | 37845 ft | 469 kts | 305° |
| 2026-05-08 14:29 | 18.73947 | 62.27145 | 37851 ft | 469 kts | 305° |
| 2026-05-08 14:30 | 18.77735 | 62.21535 | 37851 ft | 469 kts | 305° |
| 2026-05-08 14:30 | 18.81517 | 62.15928 | 37845 ft | 469 kts | 305° |
| 2026-05-08 14:31 | 18.85285 | 62.10336 | 37848 ft | 469 kts | 305° |
| 2026-05-08 14:31 | 18.89069 | 62.04716 | 37852 ft | 469 kts | 305° |
| 2026-05-08 14:32 | 18.94741 | 61.96283 | 37850 ft | 469 kts | 305° |
| 2026-05-08 14:32 | 18.98491 | 61.90703 | 37849 ft | 469 kts | 304° |
| 2026-05-08 14:33 | 19.02284 | 61.85051 | 37849 ft | 469 kts | 305° |
| 2026-05-08 14:33 | 19.06060 | 61.79420 | 37848 ft | 469 kts | 304° |
| 2026-05-08 14:34 | 19.09805 | 61.73831 | 37843 ft | 469 kts | 304° |
| 2026-05-08 14:34 | 19.13580 | 61.68193 | 37848 ft | 469 kts | 304° |
| 2026-05-08 14:35 | 19.17366 | 61.62530 | 37844 ft | 470 kts | 304° |
| 2026-05-08 14:35 | 19.21131 | 61.56896 | 37844 ft | 469 kts | 304° |
| 2026-05-08 14:36 | 19.24889 | 61.51267 | 37844 ft | 470 kts | 304° |
| 2026-05-08 14:36 | 19.28653 | 61.45625 | 37839 ft | 469 kts | 304° |
| 2026-05-08 14:37 | 19.32404 | 61.39994 | 37837 ft | 470 kts | 304° |
| 2026-05-08 14:37 | 19.36172 | 61.34334 | 37840 ft | 470 kts | 304° |
| 2026-05-08 14:38 | 19.39936 | 61.28676 | 37842 ft | 470 kts | 304° |
| 2026-05-08 14:38 | 19.43703 | 61.23008 | 37838 ft | 471 kts | 304° |
| 2026-05-08 14:39 | 19.47465 | 61.17341 | 37839 ft | 470 kts | 304° |
| 2026-05-08 14:39 | 19.51225 | 61.11672 | 37837 ft | 471 kts | 304° |
| 2026-05-08 14:40 | 19.54984 | 61.05999 | 37837 ft | 471 kts | 304° |
| 2026-05-08 14:40 | 19.58720 | 61.00355 | 37837 ft | 471 kts | 304° |
| 2026-05-08 14:41 | 19.62483 | 60.94666 | 37835 ft | 471 kts | 304° |
| 2026-05-08 14:41 | 19.66245 | 60.88974 | 37831 ft | 472 kts | 304° |
| 2026-05-08 14:42 | 19.70005 | 60.83277 | 37832 ft | 472 kts | 304° |
| 2026-05-08 14:42 | 19.73771 | 60.77568 | 37831 ft | 472 kts | 304° |
| 2026-05-08 14:43 | 19.77561 | 60.71816 | 37833 ft | 473 kts | 304° |
| 2026-05-08 14:43 | 19.81312 | 60.66118 | 37831 ft | 473 kts | 304° |
| 2026-05-08 14:44 | 19.85064 | 60.60413 | 37830 ft | 473 kts | 304° |
| 2026-05-08 14:44 | 19.88834 | 60.54675 | 37828 ft | 473 kts | 304° |
| 2026-05-08 14:45 | 19.92605 | 60.48929 | 37828 ft | 474 kts | 304° |
| 2026-05-08 14:45 | 19.96363 | 60.43200 | 37830 ft | 474 kts | 304° |
| 2026-05-08 14:46 | 20.00118 | 60.37467 | 37830 ft | 474 kts | 304° |
| 2026-05-08 14:46 | 20.04021 | 60.31812 | 37836 ft | 475 kts | 311° |
| 2026-05-08 14:47 | 20.09102 | 60.27369 | 37830 ft | 478 kts | 327° |
| 2026-05-08 14:47 | 20.14830 | 60.23738 | 37823 ft | 478 kts | 328° |
| 2026-05-08 14:48 | 20.20561 | 60.20121 | 37824 ft | 478 kts | 328° |
| 2026-05-08 14:48 | 20.26293 | 60.16492 | 37819 ft | 478 kts | 328° |
| 2026-05-08 14:49 | 20.32000 | 60.12870 | 37820 ft | 478 kts | 328° |
| 2026-05-08 14:49 | 20.37695 | 60.09251 | 37819 ft | 478 kts | 328° |
| 2026-05-08 14:50 | 20.43421 | 60.05608 | 37818 ft | 478 kts | 328° |
| 2026-05-08 14:50 | 20.49151 | 60.01958 | 37817 ft | 478 kts | 328° |
| 2026-05-08 14:51 | 20.54859 | 59.98318 | 37813 ft | 478 kts | 328° |
| 2026-05-08 14:51 | 20.60570 | 59.94674 | 37813 ft | 478 kts | 328° |
| 2026-05-08 14:52 | 20.69184 | 59.89171 | 37811 ft | 478 kts | 328° |
| 2026-05-08 14:53 | 20.74874 | 59.85532 | 37812 ft | 478 kts | 328° |
| 2026-05-08 14:53 | 20.80598 | 59.81867 | 37807 ft | 478 kts | 327° |
| 2026-05-08 14:54 | 20.86322 | 59.78199 | 37805 ft | 479 kts | 327° |
| 2026-05-08 14:54 | 20.92032 | 59.74537 | 37803 ft | 478 kts | 327° |
| 2026-05-08 14:55 | 20.97779 | 59.70848 | 37799 ft | 479 kts | 327° |
| 2026-05-08 14:55 | 21.03496 | 59.67174 | 37798 ft | 478 kts | 327° |
| 2026-05-08 14:56 | 21.09199 | 59.63504 | 37797 ft | 479 kts | 327° |
| 2026-05-08 14:56 | 21.14871 | 59.59850 | 37793 ft | 478 kts | 327° |
| 2026-05-08 14:57 | 21.20588 | 59.56164 | 37788 ft | 478 kts | 327° |
| 2026-05-08 14:57 | 21.26319 | 59.52466 | 37784 ft | 478 kts | 327° |
| 2026-05-08 14:58 | 21.32002 | 59.48795 | 37785 ft | 478 kts | 327° |
| 2026-05-08 14:58 | 21.37702 | 59.45108 | 37768 ft | 478 kts | 327° |
| 2026-05-08 14:59 | 21.43415 | 59.41410 | 37770 ft | 478 kts | 327° |
| 2026-05-08 14:59 | 21.52003 | 59.35844 | 37769 ft | 478 kts | 327° |
| 2026-05-08 15:00 | 21.57680 | 59.32160 | 37774 ft | 478 kts | 327° |
| 2026-05-08 15:00 | 21.63365 | 59.28469 | 37780 ft | 478 kts | 327° |
| 2026-05-08 15:01 | 21.69068 | 59.24765 | 37780 ft | 477 kts | 327° |
| 2026-05-08 15:01 | 21.74715 | 59.21093 | 37789 ft | 477 kts | 326° |
| 2026-05-08 15:02 | 21.80415 | 59.17384 | 37796 ft | 477 kts | 327° |
| 2026-05-08 15:02 | 21.86108 | 59.13675 | 37796 ft | 477 kts | 326° |
| 2026-05-08 15:03 | 21.91770 | 59.09983 | 37807 ft | 477 kts | 327° |
| 2026-05-08 15:03 | 21.97464 | 59.06267 | 37817 ft | 477 kts | 327° |
| 2026-05-08 15:04 | 22.03143 | 59.02557 | 37827 ft | 477 kts | 326° |
| 2026-05-08 15:04 | 22.08790 | 58.98865 | 37823 ft | 477 kts | 327° |
| 2026-05-08 15:05 | 22.14462 | 58.95152 | 37826 ft | 477 kts | 326° |
| 2026-05-08 15:05 | 22.20133 | 58.91437 | 37826 ft | 477 kts | 326° |
| 2026-05-08 15:06 | 22.25843 | 58.87693 | 37838 ft | 477 kts | 326° |
| 2026-05-08 15:06 | 22.31508 | 58.83977 | 37845 ft | 476 kts | 327° |
| 2026-05-08 15:07 | 22.37158 | 58.80267 | 37855 ft | 476 kts | 326° |
| 2026-05-08 15:07 | 22.42834 | 58.76537 | 37852 ft | 476 kts | 326° |
| 2026-05-08 15:08 | 22.47556 | 58.73431 | 37857 ft | 476 kts | 326° |
| 2026-05-08 15:08 | 22.54142 | 58.69094 | 37871 ft | 476 kts | 326° |
| 2026-05-08 15:09 | 22.59825 | 58.65347 | 37882 ft | 476 kts | 326° |
| 2026-05-08 15:09 | 22.65459 | 58.61630 | 37892 ft | 476 kts | 326° |
| 2026-05-08 15:10 | 22.71084 | 58.57913 | 37901 ft | 475 kts | 326° |
| 2026-05-08 15:10 | 22.76755 | 58.54164 | 37909 ft | 476 kts | 326° |
| 2026-05-08 15:11 | 22.82403 | 58.50425 | 37928 ft | 475 kts | 326° |
| 2026-05-08 15:11 | 22.88048 | 58.46684 | 37949 ft | 475 kts | 326° |
| 2026-05-08 15:12 | 22.93679 | 58.42948 | 37967 ft | 475 kts | 326° |
| 2026-05-08 15:12 | 22.99316 | 58.39205 | 37980 ft | 475 kts | 326° |
| 2026-05-08 15:13 | 23.04941 | 58.35466 | 37981 ft | 476 kts | 326° |
| 2026-05-08 15:13 | 23.10607 | 58.31695 | 37991 ft | 475 kts | 326° |
| 2026-05-08 15:14 | 23.16208 | 58.27962 | 37968 ft | 475 kts | 326° |
| 2026-05-08 15:14 | 23.21824 | 58.24216 | 37993 ft | 475 kts | 326° |
| 2026-05-08 15:15 | 23.27491 | 58.20431 | 37958 ft | 474 kts | 326° |
| 2026-05-08 15:15 | 23.33090 | 58.16686 | 37914 ft | 475 kts | 326° |
| 2026-05-08 15:16 | 23.38556 | 58.12711 | 37857 ft | 471 kts | 316° |
| 2026-05-08 15:16 | 23.42868 | 58.07423 | 37843 ft | 467 kts | 303° |
| 2026-05-08 15:17 | 23.46649 | 58.01679 | 37806 ft | 466 kts | 303° |
| 2026-05-08 15:17 | 23.50409 | 57.95938 | 37795 ft | 466 kts | 303° |
| 2026-05-08 15:18 | 23.54139 | 57.90231 | 37784 ft | 466 kts | 303° |
| 2026-05-08 15:18 | 23.57891 | 57.84483 | 37784 ft | 465 kts | 303° |
| 2026-05-08 15:19 | 23.61761 | 57.78822 | 37764 ft | 466 kts | 306° |
| 2026-05-08 15:19 | 23.65760 | 57.73284 | 37760 ft | 466 kts | 306° |
| 2026-05-08 15:20 | 23.69751 | 57.67730 | 37749 ft | 466 kts | 306° |
| 2026-05-08 15:20 | 23.73751 | 57.62144 | 37730 ft | 466 kts | 305° |
| 2026-05-08 15:21 | 23.77723 | 57.56583 | 37730 ft | 466 kts | 305° |
| 2026-05-08 15:21 | 23.81713 | 57.50989 | 37733 ft | 466 kts | 305° |
| 2026-05-08 15:22 | 23.85664 | 57.45442 | 37733 ft | 465 kts | 305° |
| 2026-05-08 15:22 | 23.89656 | 57.39829 | 37711 ft | 465 kts | 305° |
| 2026-05-08 15:23 | 23.93619 | 57.34250 | 37712 ft | 465 kts | 305° |
| 2026-05-08 15:23 | 23.97568 | 57.28685 | 37713 ft | 465 kts | 305° |
| 2026-05-08 15:24 | 24.01505 | 57.23130 | 37592 ft | 460 kts | 305° |
| 2026-05-08 15:24 | 24.03454 | 57.20379 | 36781 ft | 462 kts | 305° |
| 2026-05-08 15:24 | 24.05434 | 57.17580 | 35928 ft | 463 kts | 305° |
| 2026-05-08 15:25 | 24.07399 | 57.14801 | 35179 ft | 463 kts | 305° |
| 2026-05-08 15:25 | 24.09350 | 57.12042 | 34426 ft | 462 kts | 305° |
| 2026-05-08 15:25 | 24.11322 | 57.09250 | 33612 ft | 463 kts | 305° |
| 2026-05-08 15:25 | 24.13267 | 57.06496 | 32811 ft | 463 kts | 305° |
| 2026-05-08 15:26 | 24.15249 | 57.03688 | 32053 ft | 463 kts | 305° |
| 2026-05-08 15:26 | 24.17215 | 57.00900 | 31241 ft | 465 kts | 305° |
| 2026-05-08 15:26 | 24.19169 | 56.98128 | 30435 ft | 467 kts | 306° |
| 2026-05-08 15:26 | 24.21149 | 56.95318 | 29934 ft | 461 kts | 306° |
| 2026-05-08 15:27 | 24.23081 | 56.92574 | 29478 ft | 460 kts | 305° |
| 2026-05-08 15:27 | 24.25059 | 56.89761 | 28957 ft | 474 kts | 306° |
| 2026-05-08 15:27 | 24.27086 | 56.86877 | 28392 ft | 474 kts | 306° |
| 2026-05-08 15:27 | 24.29083 | 56.84035 | 27845 ft | 469 kts | 306° |
| 2026-05-08 15:28 | 24.31050 | 56.81234 | 27293 ft | 464 kts | 306° |
| 2026-05-08 15:28 | 24.33013 | 56.78438 | 26747 ft | 460 kts | 306° |
| 2026-05-08 15:28 | 24.34962 | 56.75704 | 26195 ft | 456 kts | 309° |
| 2026-05-08 15:28 | 24.37136 | 56.73187 | 25620 ft | 453 kts | 313° |
| 2026-05-08 15:29 | 24.39351 | 56.70760 | 25060 ft | 450 kts | 314° |
| 2026-05-08 15:29 | 24.41547 | 56.68359 | 24516 ft | 446 kts | 314° |
| 2026-05-08 15:29 | 24.43738 | 56.65960 | 23979 ft | 442 kts | 314° |
| 2026-05-08 15:29 | 24.45899 | 56.63594 | 23415 ft | 438 kts | 314° |
| 2026-05-08 15:30 | 24.48037 | 56.61251 | 22864 ft | 434 kts | 314° |
| 2026-05-08 15:30 | 24.50152 | 56.58933 | 22329 ft | 430 kts | 314° |
| 2026-05-08 15:30 | 24.52248 | 56.56634 | 21806 ft | 426 kts | 314° |
| 2026-05-08 15:30 | 24.54357 | 56.54319 | 21267 ft | 423 kts | 314° |
| 2026-05-08 15:31 | 24.56412 | 56.52064 | 20732 ft | 420 kts | 314° |
| 2026-05-08 15:31 | 24.58474 | 56.49798 | 20190 ft | 417 kts | 314° |
| 2026-05-08 15:31 | 24.60514 | 56.47555 | 19676 ft | 415 kts | 314° |
| 2026-05-08 15:31 | 24.62539 | 56.45329 | 19145 ft | 412 kts | 314° |
| 2026-05-08 15:32 | 24.64555 | 56.43110 | 18610 ft | 410 kts | 314° |
| 2026-05-08 15:32 | 24.66566 | 56.40895 | 18051 ft | 409 kts | 315° |
| 2026-05-08 15:32 | 24.68562 | 56.38696 | 17525 ft | 407 kts | 315° |
| 2026-05-08 15:32 | 24.70566 | 56.36488 | 17008 ft | 405 kts | 315° |
| 2026-05-08 15:33 | 24.72530 | 56.34322 | 16465 ft | 404 kts | 314° |
| 2026-05-08 15:33 | 24.74527 | 56.32118 | 15915 ft | 403 kts | 314° |
| 2026-05-08 15:33 | 24.76498 | 56.29942 | 15321 ft | 402 kts | 314° |
| 2026-05-08 15:33 | 24.78441 | 56.27796 | 14795 ft | 399 kts | 314° |
| 2026-05-08 15:34 | 24.80403 | 56.25627 | 14297 ft | 397 kts | 314° |
| 2026-05-08 15:34 | 24.82330 | 56.23497 | 13844 ft | 393 kts | 314° |
| 2026-05-08 15:34 | 24.84254 | 56.21368 | 13370 ft | 390 kts | 314° |
| 2026-05-08 15:34 | 24.86159 | 56.19259 | 12935 ft | 385 kts | 315° |
| 2026-05-08 15:35 | 24.88021 | 56.17195 | 12831 ft | 371 kts | 315° |
| 2026-05-08 15:35 | 24.89796 | 56.15228 | 12725 ft | 358 kts | 315° |
| 2026-05-08 15:35 | 24.91533 | 56.13302 | 12584 ft | 346 kts | 315° |
| 2026-05-08 15:35 | 24.93189 | 56.11463 | 12442 ft | 336 kts | 315° |
| 2026-05-08 15:36 | 24.94815 | 56.09658 | 12300 ft | 325 kts | 314° |
| 2026-05-08 15:36 | 24.95857 | 56.08499 | 12200 ft | 319 kts | 314° |
| 2026-05-08 15:36 | 24.97904 | 56.06205 | 12018 ft | 306 kts | 313° |
| 2026-05-08 15:36 | 24.99296 | 56.04504 | 11841 ft | 298 kts | 311° |
| 2026-05-08 15:37 | 25.00663 | 56.02807 | 11664 ft | 291 kts | 311° |
| 2026-05-08 15:37 | 25.01925 | 56.01111 | 11267 ft | 289 kts | 299° |
| 2026-05-08 15:37 | 25.02653 | 55.99004 | 10473 ft | 296 kts | 284° |
| 2026-05-08 15:37 | 25.03130 | 55.96846 | 10049 ft | 291 kts | 283° |
| 2026-05-08 15:38 | 25.03596 | 55.94675 | 9470 ft | 292 kts | 284° |
| 2026-05-08 15:38 | 25.04061 | 55.92500 | 8882 ft | 292 kts | 284° |
| 2026-05-08 15:38 | 25.04521 | 55.90351 | 8402 ft | 287 kts | 284° |
| 2026-05-08 15:38 | 25.04977 | 55.88215 | 7908 ft | 284 kts | 284° |
| 2026-05-08 15:39 | 25.05420 | 55.86139 | 7506 ft | 279 kts | 284° |
| 2026-05-08 15:39 | 25.05866 | 55.84050 | 7237 ft | 277 kts | 284° |
| 2026-05-08 15:39 | 25.06302 | 55.82000 | 6893 ft | 276 kts | 285° |
| 2026-05-08 15:39 | 25.06742 | 55.79938 | 6557 ft | 276 kts | 285° |
| 2026-05-08 15:40 | 25.07180 | 55.77877 | 6258 ft | 275 kts | 285° |
| 2026-05-08 15:40 | 25.07611 | 55.75848 | 5930 ft | 274 kts | 285° |
| 2026-05-08 15:40 | 25.08037 | 55.73836 | 5875 ft | 261 kts | 285° |
| 2026-05-08 15:40 | 25.08435 | 55.71954 | 5878 ft | 247 kts | 285° |
| 2026-05-08 15:41 | 25.08813 | 55.70164 | 5862 ft | 233 kts | 285° |
| 2026-05-08 15:41 | 25.09172 | 55.68466 | 5847 ft | 220 kts | 286° |
| 2026-05-08 15:41 | 25.09514 | 55.66845 | 5676 ft | 215 kts | 286° |
| 2026-05-08 15:41 | 25.09855 | 55.65238 | 5380 ft | 215 kts | 285° |
| 2026-05-08 15:42 | 25.10244 | 55.63650 | 5042 ft | 214 kts | 296° |
| 2026-05-08 15:42 | 25.10950 | 55.62200 | 4799 ft | 218 kts | 301° |
| 2026-05-08 15:42 | 25.11702 | 55.60759 | 4513 ft | 220 kts | 301° |
| 2026-05-08 15:42 | 25.12491 | 55.59292 | 4212 ft | 220 kts | 302° |
| 2026-05-08 15:43 | 25.13287 | 55.57859 | 3920 ft | 221 kts | 302° |
| 2026-05-08 15:43 | 25.14098 | 55.56419 | 3618 ft | 222 kts | 303° |
| 2026-05-08 15:43 | 25.14902 | 55.55000 | 3301 ft | 216 kts | 302° |
| 2026-05-08 15:43 | 25.15690 | 55.53608 | 3018 ft | 211 kts | 302° |
| 2026-05-08 15:44 | 25.16460 | 55.52242 | 2738 ft | 205 kts | 302° |
| 2026-05-08 15:44 | 25.17199 | 55.50924 | 2466 ft | 200 kts | 302° |
| 2026-05-08 15:44 | 25.17923 | 55.49628 | 2200 ft | 195 kts | 302° |
| 2026-05-08 15:44 | 25.18598 | 55.48420 | 1953 ft | 175 kts | 301° |
| 2026-05-08 15:45 | 25.19209 | 55.47326 | 1746 ft | 162 kts | 301° |
| 2026-05-08 15:45 | 25.19792 | 55.46281 | 1525 ft | 153 kts | 301° |
| 2026-05-08 15:45 | 25.20329 | 55.45319 | 1320 ft | 144 kts | 301° |
| 2026-05-08 15:45 | 25.20844 | 55.44395 | 1080 ft | 142 kts | 300° |
| 2026-05-08 15:46 | 25.21359 | 55.43474 | 862 ft | 140 kts | 301° |
| 2026-05-08 15:46 | 25.21887 | 55.42557 | 698 ft | 141 kts | 300° |
| 2026-05-08 15:46 | 25.22400 | 55.41626 | 523 ft | 142 kts | 301° |
| 2026-05-08 15:46 | 25.22915 | 55.40695 | 340 ft | 142 kts | 300° |
| 2026-05-08 15:47 | 25.23437 | 55.39772 | 175 ft | 145 kts | 299° |
| 2026-05-08 15:47 | 25.23948 | 55.38839 | 77 ft | 129 kts | 303° |
| 2026-05-08 15:47 | 25.24353 | 55.38116 | 77 ft | 92 kts | 301° |
| 2026-05-08 15:47 | 25.24586 | 55.37697 | 76 ft | 48 kts | 301° |
| 2026-05-08 15:48 | 25.24783 | 55.37246 | 76 ft | 19 kts | 281° |
| 2026-05-08 15:48 | 25.24791 | 55.37157 | 76 ft | 5 kts | 266° |
| 2026-05-08 15:48 | 25.24785 | 55.37128 | 76 ft | 5 kts | 255° |
| 2026-05-08 15:49 | 25.24784 | 55.37071 | 76 ft | 9 kts | 273° |
| 2026-05-08 15:49 | 25.24787 | 55.36986 | 76 ft | 11 kts | 256° |
| 2026-05-08 15:49 | 25.24733 | 55.36929 | 76 ft | 10 kts | 211° |
| 2026-05-08 15:49 | 25.24671 | 55.36889 | 76 ft | 8 kts | 211° |
| 2026-05-08 15:50 | 25.24662 | 55.36883 | 76 ft | 0 kts | 212° |
| 2026-05-08 15:50 | 25.24656 | 55.36879 | 76 ft | 3 kts | 212° |
| 2026-05-08 15:50 | 25.24611 | 55.36848 | 76 ft | 11 kts | 211° |
| 2026-05-08 15:51 | 25.24523 | 55.36790 | 76 ft | 17 kts | 212° |
| 2026-05-08 15:51 | 25.24429 | 55.36714 | 76 ft | 16 kts | 227° |
| 2026-05-08 15:51 | 25.24380 | 55.36610 | 76 ft | 14 kts | 257° |
| 2026-05-08 15:51 | 25.24383 | 55.36494 | 76 ft | 16 kts | 286° |
| 2026-05-08 15:52 | 25.24436 | 55.36376 | 76 ft | 18 kts | 300° |
| 2026-05-08 15:52 | 25.24504 | 55.36252 | 76 ft | 19 kts | 302° |
| 2026-05-08 15:52 | 25.24580 | 55.36118 | 76 ft | 21 kts | 302° |
| 2026-05-08 15:52 | 25.24659 | 55.35976 | 76 ft | 21 kts | 301° |
| 2026-05-08 15:53 | 25.24734 | 55.35839 | 76 ft | 20 kts | 301° |
| 2026-05-08 15:53 | 25.24805 | 55.35713 | 76 ft | 18 kts | 303° |
| 2026-05-08 15:53 | 25.24876 | 55.35601 | 76 ft | 17 kts | 302° |
| 2026-05-08 15:53 | 25.24906 | 55.35549 | 76 ft | 0 kts | 302° |
| 2026-05-08 15:54 | 25.24910 | 55.35541 | 76 ft | 3 kts | 301° |
| 2026-05-08 15:54 | 25.24933 | 55.35500 | 76 ft | 9 kts | 302° |
| 2026-05-08 15:54 | 25.24968 | 55.35437 | 76 ft | 7 kts | 302° |
| 2026-05-08 15:55 | 25.24991 | 55.35399 | 76 ft | 5 kts | 302° |
| 2026-05-08 15:55 | 25.25008 | 55.35381 | 76 ft | 1 kts | 348° |
| 2026-05-08 15:55 | 25.25025 | 55.35384 | 76 ft | 3 kts | 26° |
| 2026-05-08 15:56 | 25.25052 | 55.35403 | 76 ft | 4 kts | 32° |
| 2026-05-08 15:56 | 25.25078 | 55.35420 | 76 ft | 4 kts | 31° |
| 2026-05-08 15:56 | 25.25106 | 55.35439 | 76 ft | 3 kts | 31° |
| 2026-05-08 15:56 | 25.25112 | 55.35443 | 76 ft | 0 kts | 31° |
| 2026-05-08 15:57 | 25.25119 | 55.35447 | 76 ft | 1 kts | 31° |
| 2026-05-08 15:57 | 25.25130 | 55.35455 | 76 ft | 1 kts | 31° |
| 2026-05-08 15:57 | 25.25132 | 55.35456 | 76 ft | 0 kts | 31° |